Time;durP1;ratioP1;P1;durP2;ratioP2;P2;SDS_P1;SDS_P2;PMS_P1;PMS_P2;Temp;Humidity;BMP_temperature;BMP_pressure;BME280_temperature;BME280_humidity;BME280_pressure;Samples;Min_cycle;Max_cycle;Signal;HPM_P1;HPM_P2
2024/04/10 00:01:05;;;;;;;9.55;2.58;;;;;;;8.99;100.00;102007.63;5508717;25;20005;-39
2024/04/10 00:03:31;;;;;;;13.23;2.63;;;;;;;8.85;100.00;101995.03;5508611;25;20030;-39
2024/04/10 00:06:04;;;;;;;7.43;2.75;;;;;;;8.92;100.00;102022.91;5508902;25;19986;-40
2024/04/10 00:08:31;;;;;;;10.95;2.60;;;;;;;8.94;100.00;102015.47;5496064;25;20345;-39
2024/04/10 00:10:56;;;;;;;10.88;3.13;;;;;;;8.86;100.00;102018.28;5492805;26;20005;-40
2024/04/10 00:13:22;;;;;;;10.48;2.53;;;;;;;8.87;100.00;102024.50;5492672;26;20326;-39
2024/04/10 00:15:58;;;;;;;9.98;2.85;;;;;;;8.84;100.00;102028.44;5492904;26;19995;-40
2024/04/10 00:18:23;;;;;;;11.50;2.53;;;;;;;8.77;100.00;102017.56;5492403;26;20005;-40
2024/04/10 00:20:49;;;;;;;10.93;3.30;;;;;;;8.79;100.00;102022.78;5493127;26;20401;-39
2024/04/10 00:23:14;;;;;;;9.80;3.10;;;;;;;8.81;100.00;102031.50;5492845;26;20215;-40
2024/04/10 00:25:39;;;;;;;9.38;2.50;;;;;;;8.77;100.00;102039.13;5492508;26;20067;-39
2024/04/10 00:28:05;;;;;;;11.83;2.10;;;;;;;8.74;100.00;102042.22;5492791;26;20460;-39
2024/04/10 00:30:30;;;;;;;14.30;2.83;;;;;;;8.74;100.00;102044.09;5493189;26;20243;-39
2024/04/10 00:32:56;;;;;;;9.30;2.53;;;;;;;8.72;100.00;102048.81;5492380;26;20263;-39
2024/04/10 00:35:21;;;;;;;10.68;2.63;;;;;;;8.71;100.00;102047.16;5492737;26;20038;-39
2024/04/10 00:37:46;;;;;;;10.27;2.77;;;;;;;8.73;100.00;102051.31;5492561;26;20013;-40
2024/04/10 00:40:12;;;;;;;8.73;2.90;;;;;;;8.70;100.00;102051.72;5492289;26;20215;-40
2024/04/10 00:42:37;;;;;;;9.73;2.43;;;;;;;8.56;100.00;102041.78;5492358;26;20039;-40
2024/04/10 00:45:03;;;;;;;12.77;4.40;;;;;;;8.62;100.00;102053.69;5492306;26;20211;-39
2024/04/10 00:47:29;;;;;;;12.48;3.08;;;;;;;8.62;100.00;102070.69;5491540;26;20016;-39
2024/04/10 00:49:57;;;;;;;10.18;3.08;;;;;;;8.58;100.00;102069.38;5492188;26;20009;-40
2024/04/10 00:52:23;;;;;;;9.43;2.28;;;;;;;8.60;100.00;102072.75;5491647;26;20408;-39
2024/04/10 00:54:48;;;;;;;;;;;;;;;8.71;100.00;102076.81;5492391;26;20457;-40
2024/04/10 00:57:14;;;;;;;6.85;2.20;;;;;;;8.62;100.00;102086.88;5491636;26;19928;-39
2024/04/10 00:59:39;;;;;;;11.67;2.90;;;;;;;8.67;100.00;102075.53;5492705;26;20001;-40
2024/04/10 01:02:06;;;;;;;15.23;3.53;;;;;;;8.68;100.00;102079.88;5492362;26;20220;-40
2024/04/10 01:04:31;;;;;;;9.23;2.70;;;;;;;8.65;100.00;102086.50;5492048;26;20022;-40
2024/04/10 01:06:56;;;;;;;7.43;2.47;;;;;;;8.66;100.00;102092.72;5491588;26;20063;-39
2024/04/10 01:09:21;;;;;;;7.37;2.60;;;;;;;8.69;100.00;102092.38;5492272;26;20427;-40
2024/04/10 01:11:47;;;;;;;9.57;2.50;;;;;;;8.69;100.00;102098.59;5491607;26;20430;-39
2024/04/10 01:14:13;;;;;;;10.25;2.55;;;;;;;8.69;100.00;102092.38;5492540;26;19990;-39
2024/04/10 01:16:38;;;;;;;9.37;2.50;;;;;;;8.76;100.00;102104.91;5491718;26;19998;-39
2024/04/10 01:19:06;;;;;;;6.10;2.30;;;;;;;8.73;100.00;102099.03;5491499;26;20005;-40
2024/04/10 01:21:31;;;;;;;12.95;2.65;;;;;;;8.72;100.00;102106.28;5491784;26;19991;-39
2024/04/10 01:23:57;;;;;;;10.27;2.72;;;;;;;8.81;100.00;102112.41;5492349;26;20004;-39
2024/04/10 01:26:22;;;;;;;8.67;2.50;;;;;;;8.80;100.00;102118.03;5491336;26;20425;-40
2024/04/10 01:28:47;;;;;;;12.07;2.63;;;;;;;8.81;100.00;102117.00;5492042;26;19989;-39
2024/04/10 01:31:12;;;;;;;8.60;2.60;;;;;;;8.76;100.00;102120.25;5491692;26;20438;-39
2024/04/10 01:33:38;;;;;;;10.00;2.97;;;;;;;8.74;100.00;102116.91;5491673;26;19997;-40
2024/04/10 01:36:03;;;;;;;7.43;2.50;;;;;;;8.74;100.00;102131.22;5491414;26;20000;-39
2024/04/10 01:38:29;;;;;;;7.07;1.98;;;;;;;8.76;100.00;102141.81;5491557;26;20067;-39
2024/04/10 01:40:55;;;;;;;8.77;2.72;;;;;;;8.67;100.00;102129.47;5491872;26;20062;-40
2024/04/10 01:43:20;;;;;;;11.90;2.17;;;;;;;8.73;100.00;102140.31;5491430;26;19998;-40
2024/04/10 01:45:46;;;;;;;9.50;2.63;;;;;;;8.71;100.00;102141.53;5492385;26;19994;-39
2024/04/10 01:48:11;;;;;;;8.70;2.78;;;;;;;8.71;100.00;102155.03;5490986;26;20005;-39
2024/04/10 01:50:36;;;;;;;8.33;2.50;;;;;;;8.68;100.00;102150.84;5491837;26;19990;-39
2024/04/10 01:53:02;;;;;;;6.13;2.30;;;;;;;8.66;100.00;102155.59;5490795;26;20002;-39
2024/04/10 01:55:27;;;;;;;7.70;2.90;;;;;;;8.62;100.00;102156.97;5491400;26;20223;-39
2024/04/10 01:57:52;;;;;;;7.57;2.57;;;;;;;8.59;100.00;102161.91;5490878;26;20227;-39
2024/04/10 02:00:22;;;;;;;6.53;2.33;;;;;;;8.46;100.00;102155.31;5491191;26;20414;-39
2024/04/10 02:02:48;;;;;;;9.68;2.72;;;;;;;8.54;100.00;102175.09;5491441;26;20043;-39
2024/04/10 02:05:14;;;;;;;7.45;2.35;;;;;;;8.52;100.00;102169.91;5491433;26;19994;-39
2024/04/10 02:07:39;;;;;;;8.27;2.50;;;;;;;8.49;100.00;102176.53;5490736;26;20100;-39
2024/04/10 02:10:04;;;;;;;8.30;2.43;;;;;;;8.41;100.00;102173.06;5491775;26;19998;-39
2024/04/10 02:12:30;;;;;;;8.48;2.10;;;;;;;8.46;100.00;102182.28;5490981;26;20395;-39
2024/04/10 02:14:55;;;;;;;5.53;2.03;;;;;;;8.42;100.00;102172.88;5491263;26;20005;-39
2024/04/10 02:17:21;;;;;;;8.02;2.28;;;;;;;8.43;100.00;102182.63;5490866;26;19997;-39
2024/04/10 02:19:46;;;;;;;7.47;2.57;;;;;;;8.40;100.00;102183.00;5490994;26;20001;-39
2024/04/10 02:22:11;;;;;;;5.97;2.40;;;;;;;8.45;100.00;102186.00;5490634;26;19990;-39
2024/04/10 02:24:36;;;;;;;9.60;2.53;;;;;;;8.44;100.00;102192.41;5490597;26;19994;-39
2024/04/10 02:27:02;;;;;;;5.53;1.90;;;;;;;8.43;100.00;102189.88;5490832;26;20002;-40
2024/04/10 02:29:30;;;;;;;6.50;2.42;;;;;;;8.39;100.00;102184.00;5490863;26;20018;-39
2024/04/10 02:31:55;;;;;;;7.78;2.30;;;;;;;8.42;100.00;102196.28;5490129;26;20013;-39
2024/04/10 02:34:20;;;;;;;6.50;2.58;;;;;;;8.42;100.00;102199.81;5490739;26;19994;-39
2024/04/10 02:36:46;;;;;;;6.07;2.37;;;;;;;8.46;100.00;102211.91;5490343;26;20061;-39
2024/04/10 02:39:11;;;;;;;7.33;2.00;;;;;;;8.45;100.00;102212.13;5491358;26;20006;-39
2024/04/10 02:41:37;;;;;;;6.53;1.83;;;;;;;8.45;100.00;102223.72;5490208;26;19994;-40
2024/04/10 02:44:03;;;;;;;6.82;1.70;;;;;;;8.49;100.00;102233.13;5490525;26;20000;-39
2024/04/10 02:46:28;;;;;;;5.10;1.88;;;;;;;8.39;100.00;102208.25;5490415;26;20523;-39
2024/04/10 02:48:54;;;;;;;6.25;2.08;;;;;;;8.51;100.00;102236.47;5490391;26;20064;-39
2024/04/10 02:51:19;;;;;;;7.50;2.30;;;;;;;8.49;100.00;102237.66;5489869;26;20066;-39
2024/04/10 02:53:44;;;;;;;4.83;1.93;;;;;;;8.42;100.00;102236.72;5490421;26;20330;-39
2024/04/10 02:56:10;;;;;;;6.83;2.00;;;;;;;8.49;100.00;102246.63;5489768;26;20069;-40
2024/04/10 02:58:35;;;;;;;7.77;2.20;;;;;;;8.44;100.00;102242.75;5490583;26;20223;-47
2024/04/10 03:01:00;;;;;;;5.03;2.10;;;;;;;8.47;100.00;102264.81;5490240;26;20211;-47
2024/04/10 03:03:26;;;;;;;7.30;2.20;;;;;;;8.44;100.00;102262.50;5490074;26;20002;-39
2024/04/10 03:06:05;;;;;;;8.40;2.40;;;;;;;8.43;100.00;102258.09;5490734;26;19994;-39
2024/04/10 03:08:31;;;;;;;6.30;2.50;;;;;;;8.44;100.00;102264.31;5490047;26;20023;-40
2024/04/10 03:10:56;;;;;;;6.97;2.80;;;;;;;8.47;100.00;102267.50;5490693;26;20519;-40
2024/04/10 03:13:22;;;;;;;6.22;2.20;;;;;;;8.45;100.00;102272.25;5490041;26;19994;-39
2024/04/10 03:15:47;;;;;;;7.47;2.50;;;;;;;8.41;100.00;102272.81;5489914;26;20002;-39
2024/04/10 03:18:13;;;;;;;9.53;2.77;;;;;;;8.46;100.00;102281.19;5489641;26;19998;-39
2024/04/10 03:20:38;;;;;;;10.25;2.70;;;;;;;8.40;100.00;102282.75;5490467;26;20027;-39
2024/04/10 03:23:04;;;;;;;9.27;2.77;;;;;;;8.44;100.00;102292.16;5489865;26;20062;-39
2024/04/10 03:25:30;;;;;;;7.07;2.08;;;;;;;8.40;100.00;102290.84;5490041;26;20002;-39
2024/04/10 03:27:56;;;;;;;9.70;2.85;;;;;;;8.48;100.00;102301.53;5489759;26;20410;-39
2024/04/10 03:30:22;;;;;;;6.20;2.70;;;;;;;8.38;100.00;102295.56;5489926;26;20068;-40
2024/04/10 03:32:47;;;;;;;5.75;2.15;;;;;;;8.44;100.00;102307.47;5489920;26;20004;-40
2024/04/10 03:35:13;;;;;;;6.63;2.20;;;;;;;8.44;100.00;102289.47;5489928;26;20002;-39
2024/04/10 03:37:38;;;;;;;9.88;3.05;;;;;;;8.38;100.00;102290.16;5489274;26;20267;-39
2024/04/10 03:40:05;;;;;;;8.70;2.77;;;;;;;8.47;100.00;102307.09;5490134;26;19999;-39
2024/04/10 03:42:32;;;;;;;8.85;2.70;;;;;;;8.41;100.00;102314.06;5489591;26;19994;-39
2024/04/10 03:44:58;;;;;;;11.70;3.30;;;;;;;8.44;100.00;102321.81;5493538;26;19998;-39
2024/04/10 03:47:23;;;;;;;8.95;2.22;;;;;;;8.40;100.00;102320.50;5493175;26;20069;-40
2024/04/10 03:49:48;;;;;;;8.83;2.40;;;;;;;8.31;100.00;102312.59;5493493;26;19995;-40
2024/04/10 03:52:14;;;;;;;7.80;2.47;;;;;;;8.38;100.00;102333.28;5492894;26;20272;-40
2024/04/10 03:54:39;;;;;;;10.77;3.23;;;;;;;8.42;100.00;102333.78;5493659;26;20006;-38
2024/04/10 03:57:04;;;;;;;8.47;2.40;;;;;;;8.40;100.00;102347.44;5492658;26;20009;-40
2024/04/10 03:59:30;;;;;;;8.77;2.20;;;;;;;8.41;100.00;102348.28;5493308;26;20009;-39
2024/04/10 04:01:56;;;;;;;4.53;1.90;;;;;;;8.41;100.00;102356.38;5492968;26;20513;-39
2024/04/10 04:04:21;;;;;;;7.95;2.25;;;;;;;8.42;100.00;102356.19;5492623;26;20066;-39
2024/04/10 04:06:46;;;;;;;9.03;2.47;;;;;;;8.44;100.00;102354.16;5492591;26;19994;-40
2024/04/10 04:09:12;;;;;;;4.83;2.20;;;;;;;8.49;100.00;102367.94;5492554;26;20311;-39
2024/04/10 04:11:37;;;;;;;5.57;2.03;;;;;;;8.47;100.00;102363.72;5492168;26;20021;-39
2024/04/10 04:14:03;;;;;;;6.85;2.20;;;;;;;8.46;100.00;102368.28;5492785;26;19995;-40
2024/04/10 04:16:29;;;;;;;5.57;1.80;;;;;;;8.42;100.00;102361.56;5492339;26;20436;-39
2024/04/10 04:18:55;;;;;;;7.63;2.38;;;;;;;8.41;100.00;102362.59;5492980;26;19994;-39
2024/04/10 04:21:20;;;;;;;6.77;1.90;;;;;;;8.48;100.00;102376.19;5492186;26;20005;-39
2024/04/10 04:23:46;;;;;;;8.25;2.30;;;;;;;8.49;100.00;102376.03;5492604;26;19990;-39
2024/04/10 04:26:11;;;;;;;5.00;2.17;;;;;;;8.49;100.00;102384.13;5492611;26;19994;-39
2024/04/10 04:28:36;;;;;;;6.43;1.93;;;;;;;8.47;100.00;102383.44;5492573;26;19998;-40
2024/04/10 04:31:02;;;;;;;8.45;2.40;;;;;;;8.46;100.00;102397.94;5492850;26;20656;-39
2024/04/10 04:33:27;;;;;;;10.80;2.50;;;;;;;8.43;100.00;102397.44;5491868;26;20442;-39
2024/04/10 04:35:53;;;;;;;7.13;2.20;;;;;;;8.41;100.00;102402.19;5492579;26;20216;-39
2024/04/10 04:38:18;;;;;;;8.68;2.05;;;;;;;8.41;100.00;102407.59;5492138;26;20066;-39
2024/04/10 04:40:43;;;;;;;4.90;1.70;;;;;;;8.37;100.00;102412.47;5491996;26;20005;-39
2024/04/10 04:43:09;;;;;;;6.83;2.37;;;;;;;8.36;100.00;102415.34;5491912;26;20061;-39
2024/04/10 04:45:35;;;;;;;5.80;2.80;;;;;;;8.29;100.00;102414.34;5492622;26;20005;-40
2024/04/10 04:48:01;;;;;;;6.63;2.03;;;;;;;8.27;100.00;102428.00;5491788;26;20513;-40
2024/04/10 04:50:26;;;;;;;8.07;2.28;;;;;;;8.18;100.00;102423.69;5492209;26;19998;-39
2024/04/10 04:52:52;;;;;;;6.25;1.90;;;;;;;8.18;100.00;102435.28;5491882;26;20001;-40
2024/04/10 04:55:18;;;;;;;8.23;2.20;;;;;;;8.19;100.00;102436.13;5491670;26;20002;-40
2024/04/10 04:57:44;;;;;;;5.50;1.75;;;;;;;8.21;100.00;102444.91;5492119;26;20307;-39
2024/04/10 05:00:14;;;;;;;5.00;1.83;;;;;;;8.14;100.00;102444.75;5492140;26;20043;-39
2024/04/10 05:02:43;;;;;;;6.20;1.90;;;;;;;8.13;100.00;102450.31;5490727;26;20018;-39
2024/04/10 05:05:15;;;;;;;8.35;2.65;;;;;;;8.07;100.00;102442.94;5492343;26;20328;-39
2024/04/10 05:07:41;;;;;;;6.00;1.80;;;;;;;8.19;100.00;102452.31;5491744;26;20008;-40
2024/04/10 05:10:08;;;;;;;6.65;2.10;;;;;;;8.14;100.00;102454.69;5492028;26;20009;-39
2024/04/10 05:12:34;;;;;;;7.28;2.65;;;;;;;8.14;100.00;102470.84;5491745;26;20129;-38
2024/04/10 05:14:59;;;;;;;7.70;2.33;;;;;;;8.18;100.00;102477.56;5492583;26;19998;-40
2024/04/10 05:17:25;;;;;;;8.20;2.43;;;;;;;8.13;100.00;102474.56;5491442;26;19994;-40
2024/04/10 05:19:50;;;;;;;7.50;2.45;;;;;;;8.11;100.00;102484.69;5491844;26;20223;-40
2024/04/10 05:22:16;;;;;;;9.07;2.45;;;;;;;8.02;100.00;102477.66;5491728;26;20001;-40
2024/04/10 05:24:41;;;;;;;5.87;1.93;;;;;;;8.02;100.00;102494.66;5492073;26;20430;-40
2024/04/10 05:27:10;;;;;;;6.80;2.38;;;;;;;8.04;100.00;102499.84;5491662;26;19994;-40
2024/04/10 05:29:36;;;;;;;11.30;2.33;;;;;;;7.99;100.00;102492.28;5492642;26;19994;-40
2024/04/10 05:32:02;;;;;;;5.68;2.03;;;;;;;8.00;100.00;102504.75;5491461;26;20403;-38
2024/04/10 05:34:27;;;;;;;4.18;1.58;;;;;;;8.01;100.00;102514.53;5491578;26;20021;-39
2024/04/10 05:36:52;;;;;;;7.03;2.03;;;;;;;8.03;100.00;102522.44;5491450;26;19998;-39
2024/04/10 05:39:19;;;;;;;6.10;2.20;;;;;;;7.99;100.00;102525.47;5491600;26;20326;-39
2024/04/10 05:41:44;;;;;;;;;;;;;;;8.10;100.00;102531.50;5492054;26;20349;-39
2024/04/10 05:44:10;;;;;;;5.70;1.83;;;;;;;7.92;100.00;102529.88;5492081;26;19924;-39
2024/04/10 05:46:35;;;;;;;7.33;2.37;;;;;;;7.85;100.00;102528.88;5491127;26;20015;-39
2024/04/10 05:49:00;;;;;;;7.50;2.50;;;;;;;7.86;100.00;102541.34;5491373;26;19987;-39
2024/04/10 05:51:26;;;;;;;8.93;2.37;;;;;;;7.86;100.00;102545.91;5490873;26;19998;-39
2024/04/10 05:53:52;;;;;;;7.77;2.77;;;;;;;7.82;100.00;102549.94;5491769;26;20403;-39
2024/04/10 05:56:17;;;;;;;6.68;2.13;;;;;;;7.88;100.00;102558.16;5490968;26;20001;-39
2024/04/10 05:58:43;;;;;;;5.75;1.83;;;;;;;7.86;100.00;102562.88;5491916;26;20322;-39
2024/04/10 06:01:09;;;;;;;6.70;2.35;;;;;;;7.91;100.00;102573.16;5490875;26;20430;-39
2024/04/10 06:03:34;;;;;;;4.65;1.90;;;;;;;8.04;100.00;102576.13;5491765;26;19990;-39
2024/04/10 06:06:12;;;;;;;6.70;2.20;;;;;;;8.09;100.00;102584.53;5489914;26;19994;-39
2024/04/10 06:08:41;;;;;;;6.53;2.22;;;;;;;8.05;100.00;102588.59;5491450;26;20457;-39
2024/04/10 06:11:06;;;;;;;5.78;2.42;;;;;;;8.13;100.00;102598.53;5491124;26;20031;-40
2024/04/10 06:13:32;;;;;;;4.83;1.80;;;;;;;8.04;100.00;102575.28;5491319;26;19998;-39
2024/04/10 06:16:02;;;;;;;5.63;2.35;;;;;;;8.14;100.00;102602.88;5491260;26;20232;-39
2024/04/10 06:18:28;;;;;;;6.70;2.38;;;;;;;8.13;100.00;102601.22;5491288;26;20009;-39
2024/04/10 06:21:11;;;;;;;4.15;1.88;;;;;;;8.31;100.00;102622.56;5491291;26;19994;-39
2024/04/10 06:23:36;;;;;;;6.55;2.35;;;;;;;8.27;100.00;102622.91;5491313;26;20039;-39
2024/04/10 06:26:02;;;;;;;9.07;2.33;;;;;;;8.35;100.00;102621.22;5491402;26;20406;-39
2024/04/10 06:28:28;;;;;;;8.48;2.65;;;;;;;8.34;100.00;102601.47;5491065;26;20406;-39
2024/04/10 06:31:01;;;;;;;10.82;3.28;;;;;;;8.50;100.00;102622.22;5491149;26;20025;-39
2024/04/10 06:33:27;;;;;;;8.52;2.65;;;;;;;8.56;100.00;102617.97;5490691;26;19994;-39
2024/04/10 06:35:52;;;;;;;7.22;2.75;;;;;;;8.75;100.00;102620.25;5490781;26;20402;-40
2024/04/10 06:38:17;;;;;;;6.87;2.70;;;;;;;8.84;100.00;102627.28;5490449;26;19998;-40
2024/04/10 06:40:43;;;;;;;10.47;2.97;;;;;;;8.96;100.00;102636.66;5490977;26;20569;-40
2024/04/10 06:43:10;;;;;;;7.27;2.60;;;;;;;9.07;100.00;102631.88;5490680;26;19994;-39
2024/04/10 06:45:35;;;;;;;7.15;3.03;;;;;;;9.15;100.00;102634.53;5490731;26;20008;-40
2024/04/10 06:48:00;;;;;;;9.00;3.05;;;;;;;9.29;100.00;102641.88;5490208;26;19990;-40
2024/04/10 06:50:26;;;;;;;6.10;2.10;;;;;;;9.34;100.00;102636.78;5490858;26;20306;-39
2024/04/10 06:52:51;;;;;;;7.27;2.50;;;;;;;9.40;100.00;102643.31;5490119;26;20252;-39
2024/04/10 06:55:17;;;;;;;7.78;2.78;;;;;;;9.45;100.00;102638.22;5490445;26;20298;-39
2024/04/10 06:57:42;;;;;;;9.20;2.63;;;;;;;9.59;100.00;102653.66;5489690;26;20293;-39
2024/04/10 07:00:12;;;;;;;6.97;2.33;;;;;;;9.60;100.00;102651.78;5490254;26;20009;-39
2024/04/10 07:02:40;;;;;;;9.45;3.10;;;;;;;9.66;100.00;102668.13;5489853;26;20227;-39
2024/04/10 07:05:06;;;;;;;7.88;2.83;;;;;;;9.70;100.00;102669.41;5490049;26;20009;-39
2024/04/10 07:07:32;;;;;;;13.18;2.90;;;;;;;9.77;100.00;102669.56;5489800;26;19998;-40
2024/04/10 07:09:57;;;;;;;8.55;2.45;;;;;;;9.83;100.00;102676.09;5489843;26;20001;-39
2024/04/10 07:12:23;;;;;;;8.13;3.03;;;;;;;9.91;100.00;102676.03;5489712;26;20006;-40
2024/04/10 07:14:48;;;;;;;9.17;2.87;;;;;;;9.94;100.00;102683.75;5490401;26;20014;-39
2024/04/10 07:17:13;;;;;;;6.87;2.50;;;;;;;9.99;100.00;102679.47;5490871;26;20314;-39
2024/04/10 07:19:39;;;;;;;7.07;2.40;;;;;;;10.07;100.00;102681.28;5493252;26;20322;-39
2024/04/10 07:22:05;;;;;;;9.65;2.92;;;;;;;10.22;100.00;102686.72;5493492;26;20438;-39
2024/04/10 07:24:31;;;;;;;9.07;2.70;;;;;;;10.31;100.00;102685.66;5492926;26;20002;-39
2024/04/10 07:26:56;;;;;;;7.97;2.63;;;;;;;10.30;100.00;102692.09;5493514;26;20087;-39
2024/04/10 07:29:22;;;;;;;7.82;2.15;;;;;;;10.28;100.00;102697.66;5493513;26;19994;-39
2024/04/10 07:31:47;;;;;;;8.13;2.60;;;;;;;10.21;100.00;102698.56;5493147;26;19991;-39
2024/04/10 07:34:14;;;;;;;9.00;2.63;;;;;;;10.28;100.00;102696.81;5491353;26;20410;-39
2024/04/10 07:36:41;;;;;;;8.02;2.95;;;;;;;10.24;100.00;102698.22;5493019;26;20826;-39
2024/04/10 07:39:08;;;;;;;8.05;2.80;;;;;;;10.30;100.00;102702.91;5493242;26;20434;-40
2024/04/10 07:41:34;;;;;;;8.00;2.35;;;;;;;10.41;100.00;102704.31;5492609;26;19994;-39
2024/04/10 07:43:59;;;;;;;8.15;2.38;;;;;;;10.44;100.00;102704.78;5493002;26;19990;-40
2024/04/10 07:46:25;;;;;;;8.85;2.80;;;;;;;10.50;100.00;102695.09;5492540;26;20005;-39
2024/04/10 07:48:55;;;;;;;7.53;2.90;;;;;;;10.54;100.00;102713.47;5493512;26;20054;-38
2024/04/10 07:51:22;;;;;;;6.63;2.30;;;;;;;10.58;100.00;102717.47;5492835;26;20485;-39
2024/04/10 07:53:48;;;;;;;8.00;2.63;;;;;;;10.57;100.00;102702.28;5492776;26;20361;-39
2024/04/10 07:56:14;;;;;;;9.55;2.50;;;;;;;10.69;100.00;102715.34;5492147;26;20006;-41
2024/04/10 07:58:40;;;;;;;9.18;2.80;;;;;;;10.80;100.00;102715.72;5492821;26;19994;-39
2024/04/10 08:01:06;;;;;;;7.93;2.38;;;;;;;10.93;100.00;102725.91;5492899;26;19998;-40
2024/04/10 08:03:33;;;;;;;8.20;2.38;;;;;;;11.02;100.00;102730.16;5492337;26;20005;-39
2024/04/10 08:06:00;;;;;;;8.60;2.53;;;;;;;10.98;100.00;102722.59;5492947;26;19998;-39
2024/04/10 08:08:26;;;;;;;8.10;2.33;;;;;;;10.91;100.00;102733.34;5492862;26;20042;-39
2024/04/10 08:11:13;;;;;;;9.98;2.53;;;;;;;11.04;100.00;102744.38;5493777;26;20051;-39
2024/04/10 08:13:40;;;;;;;8.13;2.10;;;;;;;10.94;100.00;102742.97;5493187;26;19998;-39
2024/04/10 08:16:07;;;;;;;7.55;2.20;;;;;;;10.97;100.00;102727.19;5490723;26;19994;-39
2024/04/10 08:18:37;;;;;;;6.65;2.55;;;;;;;11.30;100.00;102738.44;5492133;26;20088;-39
2024/04/10 08:21:05;;;;;;;8.48;2.15;;;;;;;11.34;100.00;102741.63;5492401;26;20005;-39
2024/04/10 08:23:32;;;;;;;8.02;2.10;;;;;;;11.23;100.00;102750.22;5492383;26;20321;-39
2024/04/10 08:25:59;;;;;;;8.90;2.10;;;;;;;11.29;100.00;102738.63;5492664;26;19990;-39
2024/04/10 08:28:25;;;;;;;7.85;2.42;;;;;;;11.43;100.00;102742.34;5491368;26;20001;-39
2024/04/10 08:30:54;;;;;;;8.10;1.90;;;;;;;11.57;100.00;102755.03;5493053;26;20426;-39
2024/04/10 08:33:20;;;;;;;6.68;2.00;;;;;;;11.60;100.00;102760.88;5491995;26;19998;-39
2024/04/10 08:35:57;;;;;;;5.32;1.65;;;;;;;11.61;100.00;102761.72;5492151;26;20067;-39
2024/04/10 08:38:23;;;;;;;6.22;1.75;;;;;;;11.48;100.00;102757.00;5492221;26;20006;-40
2024/04/10 08:40:53;;;;;;;6.70;1.70;;;;;;;11.44;100.00;102761.13;5492127;26;19994;-39
2024/04/10 08:43:22;;;;;;;6.55;1.92;;;;;;;11.55;100.00;102762.47;5492268;26;20326;-39
2024/04/10 08:45:49;;;;;;;7.40;2.38;;;;;;;11.64;100.00;102776.75;5492413;26;19998;-39
2024/04/10 08:48:18;;;;;;;7.20;1.90;;;;;;;11.77;100.00;102777.75;5491688;26;20442;-39
2024/04/10 08:50:45;;;;;;;6.20;1.90;;;;;;;11.96;100.00;102776.31;5492569;26;19994;-39
2024/04/10 08:53:13;;;;;;;9.40;2.13;;;;;;;12.09;100.00;102775.59;5492246;26;20054;-40
2024/04/10 08:55:40;;;;;;;7.97;2.13;;;;;;;12.18;100.00;102779.84;5491858;26;20006;-40
2024/04/10 08:58:06;;;;;;;4.15;1.40;;;;;;;12.37;100.00;102789.22;5491915;26;20423;-39
2024/04/10 09:00:31;;;;;;;;;;;;;;;12.53;100.00;102799.78;5493365;26;20013;-39
2024/04/10 09:02:58;;;;;;;10.07;2.00;;;;;;;12.19;100.00;102791.53;5492404;26;19923;-39
2024/04/10 09:05:27;;;;;;;5.80;1.45;;;;;;;12.10;100.00;102805.25;5492397;26;19994;-40
2024/04/10 09:07:59;;;;;;;6.65;1.77;;;;;;;12.02;100.00;102808.06;5492012;26;20097;-39
2024/04/10 09:10:25;;;;;;;7.07;1.92;;;;;;;12.13;100.00;102808.59;5492617;26;19998;-39
2024/04/10 09:12:50;;;;;;;5.72;1.50;;;;;;;12.27;100.00;102810.41;5492252;26;20302;-39
2024/04/10 09:15:19;;;;;;;7.38;1.70;;;;;;;12.38;100.00;102808.00;5491953;26;19990;-40
2024/04/10 09:17:45;;;;;;;5.07;1.30;;;;;;;12.61;100.00;102802.34;5491864;26;19990;-40
2024/04/10 09:20:15;;;;;;;;;;;;;;;12.96;100.00;102815.97;5492744;26;20002;-40
2024/04/10 09:22:41;;;;;;;8.15;1.77;;;;;;;12.72;99.55;102813.69;5491794;26;19931;-39
2024/04/10 09:25:12;;;;;;;;;;;;;;;12.83;100.00;102826.72;5492336;26;19994;-39
2024/04/10 09:27:38;;;;;;;5.22;1.23;;;;;;;12.46;93.73;102831.44;5491724;26;20259;-39
2024/04/10 09:30:03;;;;;;;;;;;;;;;12.65;99.40;102821.81;5492338;26;19998;-39
2024/04/10 09:32:32;;;;;;;10.70;2.45;;;;;;;12.70;96.53;102826.66;5491398;26;19931;-40
2024/04/10 09:34:58;;;;;;;7.38;1.35;;;;;;;12.81;93.88;102824.22;5491910;26;20010;-39
2024/04/10 09:37:25;;;;;;;4.30;1.35;;;;;;;12.96;92.43;102824.09;5491492;26;19998;-39
2024/04/10 09:39:51;;;;;;;5.13;1.40;;;;;;;13.07;91.93;102833.56;5490826;26;20058;-39
2024/04/10 09:42:37;;;;;;;;;;;;;;;13.30;96.13;102836.03;5490800;26;20006;-39
2024/04/10 09:45:15;;;;;;;6.25;1.40;;;;;;;13.20;90.80;102833.66;5491742;26;19930;-39
2024/04/10 09:47:43;;;;;;;5.47;1.50;;;;;;;13.28;87.20;102825.41;5491336;26;19994;-39
2024/04/10 09:50:13;;;;;;;7.53;1.95;;;;;;;13.50;84.57;102826.09;5491420;26;20001;-39
2024/04/10 09:52:40;;;;;;;4.65;1.23;;;;;;;13.55;79.71;102820.91;5491050;26;20027;-39
2024/04/10 09:55:07;;;;;;;3.38;1.17;;;;;;;13.62;80.34;102815.50;5491017;26;20009;-40
2024/04/10 09:57:33;;;;;;;5.00;1.45;;;;;;;13.86;82.13;102831.28;5490748;26;20005;-40
2024/04/10 10:00:00;;;;;;;;;;;;;;;14.09;85.88;102832.78;5491919;26;19994;-38
2024/04/10 10:02:26;;;;;;;5.63;1.50;;;;;;;14.01;79.42;102831.13;5491255;26;19924;-38
2024/04/10 10:04:51;;;;;;;;;;;;;;;14.24;84.48;102833.44;5492070;26;19994;-39
2024/04/10 10:07:21;;;;;;;4.47;1.08;;;;;;;13.78;79.44;102827.91;5491465;26;19931;-39
2024/04/10 10:09:46;;;;;;;5.20;1.10;;;;;;;13.73;80.42;102835.84;5490937;26;19998;-39
2024/04/10 10:12:11;;;;;;;;;;;;;;;13.96;83.07;102830.91;5491088;26;19990;-39
2024/04/10 10:14:37;;;;;;;5.18;1.35;;;;;;;13.95;79.99;102831.06;5491116;26;19935;-39
2024/04/10 10:17:07;;;;;;;4.80;1.20;;;;;;;14.18;76.69;102834.28;5491032;26;20318;-39
2024/04/10 10:19:35;;;;;;;6.05;1.20;;;;;;;14.38;78.89;102831.56;5491056;26;19994;-39
2024/04/10 10:22:01;;;;;;;2.95;0.98;;;;;;;14.40;76.65;102829.50;5490584;26;20385;-40
2024/04/10 10:24:29;;;;;;;2.70;0.85;;;;;;;14.55;73.16;102835.63;5490954;26;20002;-40
2024/04/10 10:27:01;;;;;;;4.47;1.45;;;;;;;14.79;75.69;102847.75;5490576;26;19994;-40
2024/04/10 10:29:27;;;;;;;3.60;1.10;;;;;;;14.75;68.32;102841.06;5490952;26;20379;-40
2024/04/10 10:32:05;;;;;;;;;;;;;;;15.09;73.25;102842.69;5491117;26;19990;-40
2024/04/10 10:34:30;;;;;;;6.05;1.85;;;;;;;14.91;68.31;102837.03;5490449;26;19963;-40
2024/04/10 10:37:06;;;;;;;3.75;1.08;;;;;;;14.72;69.43;102851.50;5490683;26;19998;-40
2024/04/10 10:39:32;;;;;;;5.03;1.48;;;;;;;14.40;70.57;102852.13;5490089;26;20441;-40
2024/04/10 10:42:04;;;;;;;3.17;0.95;;;;;;;14.25;72.65;102843.31;5490630;26;20091;-40
2024/04/10 10:44:30;;;;;;;5.00;1.20;;;;;;;14.03;73.61;102844.50;5490667;26;19994;-38
2024/04/10 10:46:57;;;;;;;;;;;;;;;14.22;78.50;102834.72;5490614;26;20462;-39
2024/04/10 10:49:26;;;;;;;5.43;1.17;;;;;;;14.06;70.67;102844.09;5490928;26;19924;-39
2024/04/10 10:51:57;;;;;;;11.57;2.10;;;;;;;14.27;72.44;102851.25;5489299;26;20006;-38
2024/04/10 10:54:23;;;;;;;3.55;1.00;;;;;;;14.65;75.52;102849.63;5490719;26;20475;-39
2024/04/10 10:56:48;;;;;;;4.03;1.17;;;;;;;14.80;67.86;102843.16;5489923;26;20004;-39
2024/04/10 10:59:14;;;;;;;;;;;;;;;15.21;71.92;102859.22;5491298;26;19994;-39
2024/04/10 11:01:43;;;;;;;4.80;1.58;;;;;;;14.88;68.82;102848.34;5490625;26;19931;-39
2024/04/10 11:04:09;;;;;;;5.50;1.20;;;;;;;14.88;64.50;102861.97;5490340;26;19990;-39
2024/04/10 11:06:35;;;;;;;3.22;1.02;;;;;;;15.02;64.33;102855.47;5489907;26;20002;-40
2024/04/10 11:09:10;;;;;;;3.83;1.10;;;;;;;14.84;61.72;102869.75;5490856;26;19995;-39
2024/04/10 11:11:37;;;;;;;3.30;0.98;;;;;;;14.87;62.68;102868.47;5489931;26;19998;-40
2024/04/10 11:14:03;;;;;;;3.78;1.00;;;;;;;15.01;62.72;102869.31;5490365;26;20372;-39
2024/04/10 11:16:33;;;;;;;3.22;1.10;;;;;;;15.08;61.26;102842.88;5489892;26;20428;-39
2024/04/10 11:19:00;;;;;;;5.78;1.20;;;;;;;15.20;63.65;102855.66;5490263;26;20009;-40
2024/04/10 11:21:26;;;;;;;4.65;1.20;;;;;;;15.43;64.10;102857.06;5489651;26;19998;-39
2024/04/10 11:23:51;;;;;;;;;;;;;;;15.66;61.10;102856.56;5489006;26;19998;-40